createdAt,value
2022-11-28T00:02:26.353Z,101217.11
2022-11-28T00:04:58.372Z,101215.85
2022-11-28T00:07:29.877Z,101214.41
2022-11-28T00:10:02.409Z,101217.16
2022-11-28T00:12:33.807Z,101217.67
2022-11-28T00:15:05.378Z,101213.46
2022-11-28T00:17:36.636Z,101212.17
2022-11-28T00:20:09.996Z,101210.36
2022-11-28T00:22:41.650Z,101202.35
2022-11-28T00:25:13.276Z,101201.31
2022-11-28T00:27:44.890Z,101201.16
2022-11-28T00:30:17.264Z,101202.79
2022-11-28T00:32:48.761Z,101201.02
2022-11-28T00:35:20.172Z,101201.61
2022-11-28T00:37:51.534Z,101199.62
2022-11-28T00:40:23.138Z,101196.97
2022-11-28T00:42:54.452Z,101200.33
2022-11-28T00:45:25.848Z,101202.41
2022-11-28T00:47:57.293Z,101202.48
2022-11-28T00:50:28.598Z,101197.02
2022-11-28T00:52:59.981Z,101198.46
2022-11-28T00:55:31.736Z,101193.23
2022-11-28T00:58:03.282Z,101187.73
2022-11-28T01:00:34.887Z,101190.40
2022-11-28T01:03:08.142Z,101185.46
2022-11-28T01:05:45.101Z,101187.59
2022-11-28T01:08:16.767Z,101188.48
2022-11-28T01:10:49.106Z,101184.79
2022-11-28T01:13:20.840Z,101181.41
2022-11-28T01:15:52.477Z,101172.76
2022-11-28T01:18:24.107Z,101173.69
2022-11-28T01:20:55.391Z,101167.31
2022-11-28T01:23:27.234Z,101165.45
2022-11-28T01:25:59.045Z,101159.38
2022-11-28T01:28:30.972Z,101157.65
2022-11-28T01:31:07.233Z,101157.15
2022-11-28T01:33:39.035Z,101154.90
2022-11-28T01:36:12.075Z,101152.08
2022-11-28T01:38:43.623Z,101148.60
2022-11-28T01:41:16.046Z,101147.25
2022-11-28T01:46:45.428Z,101132.91
2022-11-28T01:49:25.269Z,101140.80
2022-11-28T01:52:11.935Z,101127.30
2022-11-28T01:54:56.012Z,101133.92
2022-11-28T01:57:29.760Z,101136.23
2022-11-28T02:00:09.269Z,101132.24
2022-11-28T02:02:43.923Z,101132.26
2022-11-28T02:05:16.115Z,101128.85
2022-11-28T02:07:49.086Z,101126.08
2022-11-28T02:10:25.436Z,101119.00
2022-11-28T02:13:16.765Z,101121.80
2022-11-28T02:16:07.517Z,101115.04
2022-11-28T02:18:52.135Z,101112.42
2022-11-28T02:21:41.601Z,101110.95
2022-11-28T02:24:55.063Z,101110.81
2022-11-28T02:27:57.044Z,101106.27
2022-11-28T02:30:38.439Z,101094.75
2022-11-28T02:33:19.763Z,101098.18
2022-11-28T02:36:04.335Z,101095.41
2022-11-28T02:38:52.678Z,101098.48
2022-11-28T02:41:32.151Z,101095.50
2022-11-28T02:44:14.780Z,101095.36
2022-11-28T02:46:58.540Z,101095.24
2022-11-28T02:49:35.780Z,101095.10
2022-11-28T02:52:15.201Z,101094.59
2022-11-28T02:54:47.767Z,101083.94
2022-11-28T02:57:19.515Z,101093.51
2022-11-28T02:59:52.230Z,101097.67
2022-11-28T03:02:29.492Z,101094.48
2022-11-28T03:05:09.471Z,101096.64
2022-11-28T03:08:10.937Z,101095.89
2022-11-28T03:10:52.501Z,101094.93
2022-11-28T03:13:34.207Z,101093.54
2022-11-28T03:16:15.836Z,101091.05
2022-11-28T03:18:58.204Z,101093.23
2022-11-28T03:21:53.675Z,101090.88
2022-11-28T03:24:41.508Z,101094.45
2022-11-28T03:27:38.387Z,101089.35
2022-11-28T03:30:25.117Z,101092.13
2022-11-28T03:33:16.365Z,101091.90
2022-11-28T03:36:08.056Z,101085.30
2022-11-28T03:39:10.022Z,101079.78
2022-11-28T03:41:54.608Z,101076.85
2022-11-28T03:44:55.044Z,101076.77
2022-11-28T03:47:47.230Z,101080.60
2022-11-28T03:50:36.598Z,101080.22
2022-11-28T03:53:20.903Z,101074.81
2022-11-28T03:59:40.995Z,101078.44
2022-11-28T04:02:57.273Z,101074.58
2022-11-28T04:06:20.341Z,101074.83
2022-11-28T04:09:14.335Z,101072.50
2022-11-28T04:12:09.950Z,101059.83
2022-11-28T04:15:06.084Z,101068.77
2022-11-28T04:17:59.586Z,101071.63
2022-11-28T04:20:40.531Z,101067.68
2022-11-28T04:23:21.737Z,101066.95
2022-11-28T04:26:01.604Z,101067.95
2022-11-28T04:39:27.833Z,101054.27
2022-11-28T04:42:03.645Z,101052.94
2022-11-28T04:44:42.481Z,101055.86
2022-11-28T04:47:14.845Z,101056.66
2022-11-28T04:49:47.846Z,101056.77
2022-11-28T04:52:27.087Z,101057.34
2022-11-28T04:55:02.744Z,101055.48
2022-11-28T04:57:40.053Z,101057.21
2022-11-28T05:00:14.503Z,101060.05
2022-11-28T05:03:02.665Z,101057.92
2022-11-28T05:05:43.178Z,101055.66
2022-11-28T05:08:15.298Z,101056.62
2022-11-28T05:10:46.696Z,101054.67
2022-11-28T05:13:18.150Z,101051.46
2022-11-28T05:15:50.919Z,101050.99
2022-11-28T05:18:22.410Z,101052.54
2022-11-28T05:20:53.802Z,101056.25
2022-11-28T05:23:29.364Z,101056.44
2022-11-28T05:26:00.769Z,101055.06
2022-11-28T05:28:32.038Z,101051.48
2022-11-28T05:31:04.206Z,101049.62
2022-11-28T05:33:36.234Z,101052.29
2022-11-28T05:36:13.386Z,101053.27
2022-11-28T05:38:45.667Z,101058.55
2022-11-28T05:41:24.870Z,101054.48
2022-11-28T05:43:57.013Z,101057.58
2022-11-28T05:46:29.417Z,101059.45
2022-11-28T05:49:00.869Z,101059.83
2022-11-28T05:51:32.629Z,101057.61
2022-11-28T05:54:04.406Z,101054.20
2022-11-28T05:56:42.095Z,101056.03
2022-11-28T05:59:14.561Z,101052.29
2022-11-28T06:01:47.527Z,101052.11
2022-11-28T06:04:21.353Z,101051.42
2022-11-28T06:06:53.261Z,101050.60
2022-11-28T06:09:26.092Z,101056.27
2022-11-28T06:11:57.818Z,101054.45
2022-11-28T06:14:30.380Z,101051.64
2022-11-28T06:17:08.308Z,101045.51
2022-11-28T06:19:42.111Z,101050.11
2022-11-28T06:22:14.452Z,101053.02
2022-11-28T06:24:46.311Z,101050.41
2022-11-28T06:27:20.975Z,101047.98
2022-11-28T06:29:54.830Z,101047.24
2022-11-28T06:32:30.213Z,101047.29
2022-11-28T06:35:17.629Z,101046.77
2022-11-28T06:37:51.428Z,101043.13
2022-11-28T06:40:25.095Z,101049.06
2022-11-28T06:42:56.570Z,101047.45
2022-11-28T06:45:29.189Z,101053.17
2022-11-28T06:55:34.928Z,101047.85
2022-11-28T06:58:52.156Z,101051.48
2022-11-28T07:04:48.223Z,101039.42
2022-11-28T07:07:19.924Z,101042.48
2022-11-28T07:10:02.019Z,101043.60
2022-11-28T07:12:33.458Z,101045.58
2022-11-28T07:15:05.078Z,101041.23
2022-11-28T07:17:37.237Z,101046.70
2022-11-28T07:20:10.647Z,101046.52
2022-11-28T07:22:44.209Z,101043.53
2022-11-28T07:25:16.719Z,101043.30
2022-11-28T07:27:48.811Z,101044.05
2022-11-28T07:30:21.574Z,101039.08
2022-11-28T07:32:59.020Z,101040.44
2022-11-28T07:35:41.118Z,101028.41
2022-11-28T07:38:26.429Z,101034.14
2022-11-28T07:41:03.812Z,101032.73
2022-11-28T07:43:35.459Z,101034.98
2022-11-28T07:46:17.436Z,101032.94
2022-11-28T07:48:57.197Z,101023.41
2022-11-28T07:51:51.519Z,101028.21
2022-11-28T07:54:45.624Z,101030.84
2022-11-28T07:57:33.635Z,101025.62
2022-11-28T08:00:09.158Z,101025.98
2022-11-28T08:02:55.677Z,101022.45
2022-11-28T08:05:31.092Z,101026.19
2022-11-28T08:08:04.388Z,101020.06
2022-11-28T08:10:43.504Z,101012.40
2022-11-28T08:13:16.882Z,101016.44
2022-11-28T08:15:52.011Z,101018.30
2022-11-28T08:18:31.163Z,101017.56
2022-11-28T08:21:11.962Z,101017.67
2022-11-28T08:23:44.409Z,101017.50
2022-11-28T08:26:18.447Z,101013.91
2022-11-28T08:28:50.987Z,101015.27
2022-11-28T08:31:24.278Z,101017.58
2022-11-28T08:33:57.251Z,101017.42
2022-11-28T08:36:29.687Z,101012.92
2022-11-28T08:39:22.830Z,101013.75
2022-11-28T08:41:57.559Z,101011.29
2022-11-28T08:44:30.872Z,101010.04
2022-11-28T08:47:02.251Z,101013.70
2022-11-28T08:49:34.239Z,101010.89
2022-11-28T08:52:08.220Z,101011.23
2022-11-28T08:54:42.012Z,101011.16
2022-11-28T08:57:14.323Z,101010.11
2022-11-28T08:59:46.354Z,101009.86
2022-11-28T09:02:22.004Z,101011.10
2022-11-28T09:05:05.079Z,101007.52
2022-11-28T09:07:41.313Z,101005.98
2022-11-28T09:10:13.737Z,101011.42
2022-11-28T09:12:45.784Z,101005.25
2022-11-28T09:15:24.615Z,101006.06
2022-11-28T09:18:01.727Z,101010.28
2022-11-28T09:20:38.492Z,101004.49
2022-11-28T09:23:11.293Z,101001.44
2022-11-28T09:25:46.049Z,101001.88
2022-11-28T09:28:32.288Z,100993.61
2022-11-28T09:31:10.174Z,100991.02
2022-11-28T09:33:55.550Z,100986.21
2022-11-28T09:39:50.254Z,100983.38
2022-11-28T09:43:00.550Z,100974.46
2022-11-28T09:45:52.224Z,100974.91
2022-11-28T09:48:30.830Z,100975.81
2022-11-28T09:51:08.088Z,100975.73
2022-11-28T09:53:49.896Z,100974.08
2022-11-28T09:56:29.579Z,100964.81
2022-11-28T09:59:27.244Z,100968.33
2022-11-28T10:02:33.752Z,100958.98
2022-11-28T10:09:04.292Z,100948.36
2022-11-28T10:09:08.909Z,100950.57
2022-11-28T10:15:36.500Z,100939.98
2022-11-28T10:18:28.708Z,100945.19
2022-11-28T10:21:23.825Z,100943.99
2022-11-28T10:24:01.910Z,100947.22
2022-11-28T10:26:38.669Z,100942.66
2022-11-28T10:29:21.225Z,100940.17
2022-11-28T10:31:57.186Z,100942.67
2022-11-28T10:34:42.803Z,100937.37
2022-11-28T10:37:21.270Z,100930.85
2022-11-28T10:39:53.326Z,100930.05
2022-11-28T10:42:30.991Z,100926.98
2022-11-28T10:45:20.010Z,100930.48
2022-11-28T10:48:38.990Z,100933.23
2022-11-28T10:51:23.123Z,100930.49
2022-11-28T10:54:08.581Z,100927.46
2022-11-28T10:56:53.129Z,100921.37
2022-11-28T10:59:34.529Z,100922.90
2022-11-28T11:02:45.426Z,100925.64
2022-11-28T11:05:47.784Z,100922.91
2022-11-28T11:08:31.545Z,100924.52
2022-11-28T11:11:08.294Z,100917.36
2022-11-28T11:14:00.338Z,100919.55
2022-11-28T11:16:50.288Z,100918.63
2022-11-28T11:19:30.634Z,100917.40
2022-11-28T11:22:16.558Z,100920.09
2022-11-28T11:25:05.564Z,100917.77
2022-11-28T11:27:38.991Z,100924.02
2022-11-28T11:30:27.199Z,100927.35
2022-11-28T11:33:01.011Z,100920.41
2022-11-28T11:35:36.119Z,100920.60
2022-11-28T11:38:32.256Z,100919.59
2022-11-28T11:41:30.889Z,100926.24
2022-11-28T11:44:30.832Z,100919.08
2022-11-28T11:47:05.530Z,100920.79
2022-11-28T11:49:36.335Z,100912.25
2022-11-28T11:52:16.247Z,100917.23
2022-11-28T11:54:59.209Z,100920.34
2022-11-28T11:57:34.504Z,100924.58
2022-11-28T12:00:13.231Z,100916.61
2022-11-28T12:02:51.296Z,100918.67
2022-11-28T12:05:25.556Z,100920.27
2022-11-28T12:08:05.358Z,100913.84
2022-11-28T12:10:46.178Z,100916.08
2022-11-28T12:13:28.496Z,100918.18
2022-11-28T12:16:10.733Z,100911.35
2022-11-28T12:18:54.046Z,100905.30
2022-11-28T12:21:36.699Z,100908.77
2022-11-28T12:24:20.755Z,100913.17
2022-11-28T12:27:08.407Z,100913.39
2022-11-28T12:30:05.642Z,100906.42
2022-11-28T12:38:11.711Z,100892.95
2022-11-28T12:40:17.373Z,100899.27
2022-11-28T12:43:09.883Z,100889.45
2022-11-28T12:46:13.061Z,100891.40
2022-11-28T12:49:11.528Z,100885.51
2022-11-28T12:55:41.932Z,100890.21
2022-11-28T12:56:21.641Z,100891.66
2022-11-28T12:58:31.252Z,100891.26
2022-11-28T13:01:19.755Z,100889.71
2022-11-28T13:04:04.202Z,100889.65
2022-11-28T13:06:57.628Z,100890.52
2022-11-28T13:09:34.897Z,100889.01
2022-11-28T13:12:27.745Z,100887.08
2022-11-28T13:15:15.274Z,100890.96
2022-11-28T13:17:56.025Z,100894.20
2022-11-28T13:20:42.507Z,100884.22
2022-11-28T13:23:30.650Z,100883.85
2022-11-28T13:26:14.547Z,100882.52
2022-11-28T13:29:10.286Z,100879.48
2022-11-28T13:32:02.240Z,100867.58
2022-11-28T13:34:52.155Z,100865.89
2022-11-28T13:40:48.669Z,100861.02
2022-11-28T13:43:33.145Z,100865.89
2022-11-28T13:49:15.129Z,100870.09
2022-11-28T13:51:49.013Z,100869.67
2022-11-28T13:54:49.132Z,100870.52
2022-11-28T13:57:40.170Z,100873.60
2022-11-28T14:00:24.622Z,100873.34
2022-11-28T14:03:00.329Z,100873.76
2022-11-28T14:05:45.708Z,100869.63
2022-11-28T14:08:33.533Z,100868.85
2022-11-28T14:11:27.633Z,100866.25
2022-11-28T14:14:15.910Z,100865.85
2022-11-28T14:17:09.967Z,100862.89
2022-11-28T14:20:01.371Z,100859.49
2022-11-28T14:22:52.766Z,100860.00
2022-11-28T14:25:32.740Z,100855.14
2022-11-28T14:28:07.095Z,100855.05
2022-11-28T14:30:42.212Z,100850.02
2022-11-28T14:33:22.011Z,100848.80
2022-11-28T14:36:24.539Z,100851.23
2022-11-28T14:39:35.305Z,100858.18
2022-11-28T14:45:47.036Z,100858.84
2022-11-28T14:48:34.292Z,100855.33
2022-11-28T14:51:05.867Z,100857.25
2022-11-28T14:53:51.690Z,100856.47
2022-11-28T14:56:28.169Z,100857.33
2022-11-28T14:59:05.003Z,100859.48
2022-11-28T15:01:51.897Z,100862.96
2022-11-28T15:04:47.575Z,100857.27
2022-11-28T15:07:37.749Z,100857.30
2022-11-28T15:10:18.625Z,100854.80
2022-11-28T15:13:04.183Z,100852.30
2022-11-28T15:15:37.549Z,100866.48
2022-11-28T15:18:12.695Z,100861.88
2022-11-28T15:21:01.872Z,100868.15
2022-11-28T15:24:21.829Z,100857.10
2022-11-28T15:26:58.517Z,100871.42
2022-11-28T15:29:35.252Z,100869.55
2022-11-28T15:33:30.028Z,100873.64
2022-11-28T15:43:44.749Z,100868.98
2022-11-28T15:46:26.085Z,100874.13
2022-11-28T15:49:02.936Z,100872.13
2022-11-28T15:55:50.762Z,100868.77
2022-11-28T15:58:42.484Z,100868.48
2022-11-28T15:58:48.567Z,100873.09
2022-11-28T16:02:10.503Z,100866.25
2022-11-28T16:06:15.889Z,100866.98
2022-11-28T16:08:40.910Z,100870.02
2022-11-28T16:15:08.861Z,100862.63
2022-11-28T16:18:02.663Z,100862.03
2022-11-28T16:21:19.161Z,100854.94
2022-11-28T16:25:08.078Z,100857.08
2022-11-28T16:36:17.719Z,100866.79
2022-11-28T16:40:04.965Z,100863.80
2022-11-28T16:42:41.915Z,100862.66
2022-11-28T16:46:17.251Z,100867.43
2022-11-28T16:49:14.797Z,100865.40
2022-11-28T16:52:04.289Z,100857.47
2022-11-28T16:55:11.987Z,100863.95
2022-11-28T17:03:06.445Z,100861.84
2022-11-28T17:05:03.632Z,100862.44
2022-11-28T17:10:26.388Z,100862.40
2022-11-28T17:14:11.815Z,100867.38
2022-11-28T17:17:35.172Z,100864.58
2022-11-28T17:24:18.087Z,100868.49
2022-11-28T17:31:10.741Z,100868.55
2022-11-28T17:43:50.131Z,100859.97
2022-11-28T17:46:53.808Z,100867.55
2022-11-28T17:49:34.614Z,100866.98
2022-11-28T17:52:12.136Z,100868.47
2022-11-28T17:54:48.515Z,100866.02
2022-11-28T17:57:26.525Z,100863.13
2022-11-28T18:00:09.682Z,100867.52
2022-11-28T18:02:42.131Z,100867.55
2022-11-28T18:05:14.186Z,100862.85
2022-11-28T18:07:46.318Z,100869.00
2022-11-28T18:10:18.574Z,100867.81
2022-11-28T18:12:50.735Z,100865.67
2022-11-28T18:15:23.531Z,100868.60
2022-11-28T18:17:58.092Z,100869.35
2022-11-28T18:20:29.688Z,100864.90
2022-11-28T18:23:02.182Z,100862.23
2022-11-28T18:25:39.465Z,100858.91
2022-11-28T18:40:08.762Z,100863.27
2022-11-28T18:40:25.878Z,100863.30
2022-11-28T18:42:35.786Z,100859.52
2022-11-28T18:48:06.749Z,100867.36
2022-11-28T18:50:40.317Z,100869.27
2022-11-28T18:53:12.688Z,100868.23
2022-11-28T18:55:45.118Z,100866.54
2022-11-28T18:58:17.817Z,100873.30
2022-11-28T19:00:50.061Z,100872.40
2022-11-28T19:03:23.551Z,100871.40
2022-11-28T19:06:25.988Z,100869.05
2022-11-28T19:09:08.973Z,100874.64
2022-11-28T19:11:47.900Z,100872.01
2022-11-28T19:14:26.251Z,100878.02
2022-11-28T19:19:47.280Z,100876.73
2022-11-28T19:22:19.977Z,100876.77
2022-11-28T19:24:52.302Z,100884.54
2022-11-28T19:27:24.864Z,100883.96
2022-11-28T19:29:57.932Z,100886.50
2022-11-28T19:32:29.623Z,100882.77
2022-11-28T19:35:15.298Z,100882.19
2022-11-28T19:37:50.302Z,100881.77
2022-11-28T19:40:28.695Z,100879.83
2022-11-28T19:43:07.837Z,100882.36
2022-11-28T19:45:41.476Z,100880.09
2022-11-28T19:48:22.662Z,100878.46
2022-11-28T19:50:59.664Z,100870.28
2022-11-28T19:53:34.083Z,100875.42
2022-11-28T19:56:13.221Z,100878.73
2022-11-28T19:58:49.382Z,100881.70
2022-11-28T20:01:25.230Z,100885.44
2022-11-28T20:03:58.117Z,100886.70
2022-11-28T20:06:32.307Z,100884.19
2022-11-28T20:09:09.954Z,100887.87
2022-11-28T20:11:42.462Z,100887.85
2022-11-28T20:14:19.090Z,100889.33
2022-11-28T20:16:51.923Z,100887.47
2022-11-28T20:19:24.254Z,100890.14
2022-11-28T20:21:59.587Z,100884.08
2022-11-28T20:24:31.996Z,100880.48
2022-11-28T20:27:04.449Z,100882.88
2022-11-28T20:29:39.757Z,100885.40
2022-11-28T20:32:12.283Z,100887.19
2022-11-28T20:34:44.261Z,100892.34
2022-11-28T20:37:16.626Z,100891.52
2022-11-28T20:39:48.769Z,100891.86
2022-11-28T20:42:21.310Z,100900.40
2022-11-28T20:45:01.738Z,100895.75
2022-11-28T20:48:03.951Z,100901.00
2022-11-28T20:50:37.891Z,100898.98
2022-11-28T20:53:13.107Z,100888.96
2022-11-28T20:56:00.046Z,100890.99
2022-11-28T20:58:32.888Z,100892.27
2022-11-28T21:01:07.089Z,100891.34
2022-11-28T21:03:40.572Z,100889.14
2022-11-28T21:06:15.025Z,100889.02
2022-11-28T21:08:57.518Z,100888.13
2022-11-28T21:11:55.798Z,100895.14
2022-11-28T21:14:24.614Z,100897.33
2022-11-28T21:17:23.778Z,100900.33
2022-11-28T21:20:10.607Z,100903.09
2022-11-28T21:22:51.688Z,100899.95
2022-11-28T21:25:23.887Z,100897.38
2022-11-28T21:27:58.371Z,100897.44
2022-11-28T21:30:32.277Z,100899.23
2022-11-28T21:33:14.700Z,100901.52
2022-11-28T21:35:47.738Z,100897.50
2022-11-28T21:38:19.403Z,100898.33
2022-11-28T21:40:59.124Z,100899.45
2022-11-28T21:43:30.759Z,100902.30
2022-11-28T21:46:07.531Z,100903.21
2022-11-28T21:48:39.160Z,100906.64
2022-11-28T21:51:21.858Z,100909.03
2022-11-28T21:53:54.106Z,100910.79
2022-11-28T21:56:27.767Z,100911.53
2022-11-28T21:59:02.151Z,100909.05
2022-11-28T22:01:41.379Z,100905.50
2022-11-28T22:04:24.714Z,100902.73
2022-11-28T22:07:00.160Z,100901.98
2022-11-28T22:09:48.356Z,100906.50
2022-11-28T22:12:20.161Z,100897.33
2022-11-28T22:14:52.630Z,100901.64
2022-11-28T22:17:24.210Z,100900.77
2022-11-28T22:19:55.897Z,100900.23
2022-11-28T22:22:28.595Z,100901.76
2022-11-28T22:25:02.721Z,100901.36
2022-11-28T22:27:39.495Z,100899.21
2022-11-28T22:30:16.508Z,100901.88
2022-11-28T22:33:04.180Z,100899.50
2022-11-28T22:35:43.973Z,100902.73
2022-11-28T22:38:17.808Z,100895.04
2022-11-28T22:40:49.887Z,100899.14
2022-11-28T22:43:21.915Z,100894.67
2022-11-28T22:45:59.922Z,100894.27
2022-11-28T22:48:32.649Z,100890.15
2022-11-28T22:51:09.734Z,100894.20
2022-11-28T22:53:44.096Z,100894.34
2022-11-28T22:56:17.199Z,100896.48
2022-11-28T22:58:49.653Z,100894.56
2022-11-28T23:01:22.922Z,100897.08
2022-11-28T23:03:55.345Z,100894.88
2022-11-28T23:06:38.330Z,100895.63
2022-11-28T23:09:13.039Z,100893.93
2022-11-28T23:11:43.175Z,100894.10
2022-11-28T23:14:17.256Z,100895.23
2022-11-28T23:16:48.677Z,100891.67
2022-11-28T23:19:26.672Z,100892.31
2022-11-28T23:21:58.074Z,100894.98
2022-11-28T23:24:30.167Z,100894.98
2022-11-28T23:28:01.020Z,100889.79
2022-11-28T23:30:01.218Z,100889.45
2022-11-28T23:32:41.471Z,100895.48
2022-11-28T23:35:14.543Z,100890.60
2022-11-28T23:37:48.652Z,100883.80
2022-11-28T23:40:20.357Z,100892.02
2022-11-28T23:42:51.756Z,100892.13
2022-11-28T23:45:24.468Z,100896.02
2022-11-28T23:47:57.223Z,100898.54
2022-11-28T23:50:28.996Z,100899.80
2022-11-28T23:53:00.411Z,100896.71
2022-11-28T23:55:31.804Z,100899.40
2022-11-28T23:58:03.275Z,100899.27
